ADDS METAR Data INFO
IDs: Format: Raw Decoded Include TAF

Data at: 0918 UTC 13 Dec 2017

KBGF 130915Z AUTO 00000KT 10SM CLR M07/M10 A3007 RMK
KBGF 130855Z AUTO 00000KT 10SM CLR M07/M09 A3007 RMK
KBGF 130835Z AUTO 00000KT 10SM CLR M07/M09 A3008 RMK
KBGF 130815Z AUTO 00000KT 10SM CLR M07/M10 A3008 RMK
KBGF 130755Z AUTO 00000KT 10SM CLR M07/M10 A3008 RMK
KBGF 130735Z AUTO 00000KT 10SM CLR M07/M10 A3009 RMK
KBGF 130715Z AUTO 00000KT 10SM CLR M06/M10 A3009 RMK
KBGF 130655Z AUTO 00000KT 10SM CLR M07/M09 A3008 RMK
KBGF 130635Z AUTO 00000KT 10SM CLR M06/M10 A3008 RMK
KBGF 130615Z AUTO 00000KT 10SM CLR M06/M10 A3009 RMK
KBGF 130555Z AUTO 00000KT 10SM CLR M03/M11 A3009 RMK
KBGF 130535Z AUTO 00000KT 10SM CLR M03/M11 A3008 RMK
KBGF 130515Z AUTO 00000KT 10SM CLR M03/M11 A3009 RMK
KBGF 130455Z AUTO 00000KT 10SM CLR M03/M11 A3009 RMK
KBGF 130435Z AUTO 00000KT 10SM CLR M03/M11 A3009 RMK
KBGF 130415Z AUTO 31004KT 10SM CLR M02/M11 A3008 RMK
KBGF 130355Z AUTO 33004KT 10SM CLR M02/M10 A3009 RMK
KBGF 130335Z AUTO 33003KT 10SM CLR M02/M09 A3009 RMK
KBGF 130315Z AUTO 34003KT 10SM CLR M02/M10 A3009 RMK
KBGF 130255Z AUTO 33004KT 10SM CLR M02/M10 A3008 RMK
KBGF 130235Z AUTO 33004KT 10SM CLR M02/M09 A3009 RMK
KBGF 130215Z AUTO 34004KT 10SM CLR M01/M09 A3009 RMK
KBGF 130155Z AUTO 33005KT 10SM CLR M01/M09 A3008 RMK
KBGF 130135Z AUTO 33006KT 10SM CLR 00/M09 A3008 RMK
KBGF 130115Z AUTO 32006KT 10SM CLR 00/M09 A3007 RMK
KBGF 130055Z AUTO 33004KT 10SM CLR 00/M08 A3007 RMK
KBGF 130035Z AUTO 35004KT 10SM CLR 00/M08 A3006 RMK
KBGF 130015Z AUTO 34005KT 10SM CLR 01/M08 A3006 RMK
KBGF 122355Z AUTO 32008KT 10SM CLR 02/M09 A3005 RMK
KBGF 122335Z AUTO 31006KT 10SM CLR 02/M09 A3004 RMK
KBGF 122315Z AUTO 32009KT 10SM CLR 02/M09 A3004 RMK
KBGF 122255Z AUTO 32006KT 10SM CLR 03/M09 A3004 RMK
KBGF 122235Z AUTO 32011KT 10SM CLR 03/M09 A3003 RMK
KBGF 122215Z AUTO 31010KT 10SM CLR 04/M09 A3003 RMK
KBGF 122155Z AUTO 31009KT 10SM CLR 05/M08 A3002 RMK
KBGF 122135Z AUTO 34011KT 10SM CLR 05/M07 A3001 RMK
KBGF 122115Z AUTO 34011KT 10SM CLR 05/M06 A3000 RMK
KBGF 122055Z AUTO 35010KT 05/M04 A3000 RMK
KBGF 122035Z AUTO 33009KT 05/M04 A3000 RMK
KBGF 122015Z AUTO 34015KT 10SM FEW049 06/M04 A3001 RMK
KBGF 121955Z AUTO 34009KT 10SM CLR 05/M04 A3001 RMK
KBGF 121935Z AUTO 34011KT 10SM CLR 06/M04 A3001 RMK
KBGF 121915Z AUTO 31009KT 10SM CLR 06/M04 A3001 RMK
KBGF 121855Z AUTO 32011KT 10SM CLR 06/M03 A3001 RMK
KBGF 121835Z AUTO 34009KT 290V010 10SM SCT042 06/M03 A3002 RMK
KBGF 121815Z AUTO 32012KT 10SM BKN042 07/M03 A3002 RMK
KBGF 121755Z AUTO 34011KT 10SM OVC042 06/M03 A3003 RMK
KBGF 121735Z AUTO 33011KT 290V010 06/M03 A3003 RMK
KBGF 121715Z AUTO 31012KT 10SM OVC042 05/M03 A3003 RMK
KBGF 121655Z AUTO 33015KT 10SM FEW037 OVC044 06/M03 A3004 RMK
KBGF 121635Z AUTO 32011KT 10SM SCT037 OVC044 05/M03 A3005 RMK
KBGF 121615Z AUTO 34010KT 10SM FEW037 OVC044 05/M02 A3004 RMK
KBGF 121555Z AUTO 32009KT 300V360 10SM FEW029 SCT035 OVC042 04/00 A3005 RMK
KBGF 121535Z AUTO 33011KT 10SM FEW028 OVC035 04/00 A3004 RMK
KBGF 121515Z AUTO 32008KT 10SM FEW026 OVC037 04/01 A3004 RMK
KBGF 121435Z AUTO 35007KT 10SM BKN026 OVC033 04/01 A3002 RMK
KBGF 121415Z AUTO 34009KT 10SM BKN028 OVC034 05/00 A3001 RMK
KBGF 121355Z AUTO 34008KT 10SM OVC034 05/M01 A3000 RMK
KBGF 121335Z AUTO 34008KT 10SM OVC038 05/00 A2999 RMK
KBGF 121315Z AUTO 35010KT 10SM OVC038 06/00 A2998 RMK
KBGF 121255Z AUTO 36013KT 10SM SCT033 OVC041 06/00 A2996 RMK
KBGF 121235Z AUTO 34008KT 10SM SCT035 OVC042 06/00 A2995 RMK
KBGF 121215Z AUTO 35005KT 10SM BKN039 OVC047 06/M01 A2994 RMK
KBGF 121155Z AUTO 34006KT 10SM OVC050 06/M01 A2993 RMK
KBGF 121135Z AUTO 33005KT 10SM OVC050 06/M01 A2992 RMK
KBGF 121115Z AUTO 32006KT 10SM OVC055 06/M02 A2992 RMK
KBGF 121055Z AUTO 31005KT 10SM BKN055 06/M02 A2991 RMK
KBGF 121035Z AUTO 34006KT 10SM CLR 06/M02 A2991 RMK
KBGF 121015Z AUTO 33005KT 10SM CLR 06/M02 A2991 RMK
KBGF 120955Z AUTO 33005KT 10SM CLR 06/M02 A2991 RMK
KBGF 120935Z AUTO 34005KT 10SM CLR 06/M02 A2990 RMK
KBGF 120915Z AUTO 34003KT 10SM CLR 06/M01 A2990 RMK
KBGF 120855Z AUTO 33003KT 10SM CLR 07/M01 A2990 RMK
KBGF 120835Z AUTO 32003KT 10SM CLR 07/M01 A2990 RMK
KBGF 120815Z AUTO 30004KT 10SM CLR 08/00 A2990 RMK
KBGF 120755Z AUTO 30004KT 10SM CLR 07/00 A2990 RMK
KBGF 120735Z AUTO 29004KT 10SM CLR 07/00 A2990 RMK
KBGF 120715Z AUTO 31004KT 10SM CLR 08/00 A2990 RMK
KBGF 120655Z AUTO 28004KT 10SM CLR 08/00 A2990 RMK
KBGF 120635Z AUTO 28004KT 10SM CLR 09/00 A2989 RMK
KBGF 120615Z AUTO 28005KT 10SM CLR 09/00 A2990 RMK
KBGF 120555Z AUTO 27007KT 10SM CLR 10/00 A2990 RMK
KBGF 120535Z AUTO 27006KT 10SM CLR 10/00 A2990 RMK
KBGF 120515Z AUTO 26007KT 10SM CLR 11/00 A2990 RMK
KBGF 120455Z AUTO 25008KT 10SM CLR 11/M01 A2990 RMK
KBGF 120435Z AUTO 25011KT 10SM CLR 11/M01 A2991 RMK
KBGF 120415Z AUTO 25006KT 10SM CLR 11/M01 A2990 RMK
KBGF 120355Z AUTO 25010KT 10SM CLR 11/M01 A2991 RMK
KBGF 120335Z AUTO 23009KT 10SM CLR 11/M01 A2991 RMK
KBGF 120315Z AUTO 23004KT 10SM CLR 10/M01 A2992 RMK
KBGF 120255Z AUTO 21003KT 10SM CLR 08/M01 A2992 RMK
KBGF 120235Z AUTO 00000KT 10SM CLR 07/M01 A2993 RMK
KBGF 120215Z AUTO 17003KT 10SM CLR 09/M01 A2992 RMK
KBGF 120155Z AUTO 20003KT 10SM CLR 10/M01 A2992 RMK
KBGF 120135Z AUTO 19005KT 10SM CLR 09/M01 A2992 RMK
KBGF 120115Z AUTO 19005KT 10SM CLR 10/00 A2991 RMK
KBGF 120055Z AUTO 20005KT 10SM CLR 10/00 A2992 RMK
KBGF 120035Z AUTO 19006KT 10SM CLR 09/M01 A2992 RMK
KBGF 120015Z AUTO 17005KT 10SM CLR 09/M01 A2993 RMK
KBGF 112355Z AUTO 18005KT 10SM CLR 09/M01 A2994 RMK
KBGF 112335Z AUTO 17005KT 10SM CLR 08/M01 A2994 RMK
KBGF 112315Z AUTO 17004KT 10SM CLR 08/M01 A2994 RMK
KBGF 112255Z AUTO 20003KT 10SM CLR 11/M01 A2996 RMK
KBGF 112235Z AUTO 27004KT 10SM CLR 12/M01 A2997 RMK
KBGF 112215Z AUTO 22005KT 10SM CLR 13/M01 A2996 RMK
KBGF 112155Z AUTO 23006KT 10SM CLR 13/M02 A2997 RMK
KBGF 112135Z AUTO 23008KT 10SM CLR 14/M02 A2996 RMK